SpazioLink.com il tuo mini portale

Terremoti in Italia, posizione geografica

Spaziolink il MiniPortale

Home Sfondi Cerca SuperEnalotto Posizione navi Terremoti Directory Video Forum Giochi Meteo Gifs Software
Lista dei terremoti in Italia in tempo reale dopo l'elaborazione dei valori rilevati dai sensori dislocati nelle zone interessate, comprendenti gli eventi sismici di elevata magnitudo sull'intero globo, per visualizzare la posizione dell'epicentro su Google Maps cliccare sul nome del luogo evidenziato in blu.
DATA ORA MAG ≥ 2 ZONA REGIONE LAT LONG PROF km
26/03/2019 14:08:46 ML 2.0 1 km a est di Sant'Agata Feltria (RN) Emilia Romagna 43.87 12.23  22.8
26/03/2019 13:52:13 ML 2.1 2 km a est di Sant'Agata Feltria (RN) Emilia Romagna 43.86 12.23  19.2
26/03/2019 08:49:31 ML 2.2 Costa Siciliana nord-orientale (Messina) Sicilia 38.35 15.49  71.7
26/03/2019 03:12:35 ML 2.0 Adriatico Meridionale (MARE) ----- 41.77 16.59  37.0
26/03/2019 01:32:29 ML 2.3 Tirreno Meridionale (MARE) ----- 38.46 15.46 202.7
26/03/2019 00:02:05 ML 2.7 3 km a nord di Vallesaccarda (AV) Campania 41.09 15.24  20.4
25/03/2019 21:29:54 ML 2.4 Tirreno Meridionale (MARE) ----- 38.63 13.07  29.6
25/03/2019 17:38:31 ML 2.4 Isole Eolie (Messina) Sicilia 38.44 15.22 111.8
25/03/2019 15:48:33 ML 2.0 1 km a est di Milo (CT) Sicilia 37.73 15.12   8.1
25/03/2019 15:32:22 ML 2.2 1 km a nord-ovest di Milo (CT) Sicilia 37.73 15.11   7.2
25/03/2019 05:12:24 ML 2.2 12 km nord-est Modica (RG) Sicilia 36.92 14.87  10.7
25/03/2019 03:33:53 ML 2.7 7 km a sud-ovest di Serravalle di Chienti (MC) Marche 43.03 12.90   8.0
24/03/2019 20:27:13 ML 2.8 4 km a ovest di Zafferana Etnea (CT) Sicilia 37.71 15.07   3.2
24/03/2019 19:59:02 ML 2.1 Tirreno Meridionale (MARE) ----- 38.50 15.39 120.0
24/03/2019 10:08:19 ML 2.3 8 km a ovest di Saint-Rhémy-en-Bosses (AO) Valle d'Aosta 45.85 7.09   9.7
24/03/2019 05:37:36 Mwp 6.0 Indonesia (Sea) ----- 1.65 126.44  65.2
24/03/2019 04:25:23 ML 2.3 8 km a nord di Ragalna (CT) Sicilia 37.70 14.93   9.3
24/03/2019 03:49:53 ML 2.1 9 km a nord di Ragalna (CT) Sicilia 37.71 14.94   9.0
23/03/2019 20:21:16 Mwp 6.0 Colombia ----- 4.56 -76.19 120.7
23/03/2019 04:23:28 ML 2.0 6 km a sud-est di Castelsantangelo sul Nera (MC) Marche 42.85 13.20  10.1
22/03/2019 23:30:55 ML 2.6 2 km a sud-ovest di Meldola (FC) Emilia Romagna 44.12 12.04   8.2
22/03/2019 23:28:38 ML 2.3 3 km a sud-ovest di Meldola (FC) Emilia Romagna 44.10 12.05   4.9
22/03/2019 23:23:57 ML 2.1 3 km a ovest di Meldola (FC) Emilia Romagna 44.13 12.03   9.4
22/03/2019 23:08:12 ML 2.0 2 km a sud-ovest di Meldola (FC) Emilia Romagna 44.11 12.05   7.2
22/03/2019 22:59:00 ML 2.2 2 km a sud-ovest di Meldola (FC) Emilia Romagna 44.11 12.05   7.5
22/03/2019 18:32:41 ML 2.6 Tirreno Meridionale (MARE) ----- 38.78 15.65 170.3
22/03/2019 13:35:27 ML 2.2 5 km a sud-ovest di Costacciaro (PG) Umbria 43.32 12.68   9.1
22/03/2019 12:37:52 ML 2.6 Costa Calabra sud-occidentale (Catanzaro, Vibo Valentia, Reggio di Calabria) Calabria 38.98 15.77  94.3
22/03/2019 10:53:35 ML 2.0 2 km a est di San Cono (CT) Sicilia 37.29 14.39  37.0
22/03/2019 07:33:58 ML 2.4 Tirreno Meridionale (MARE) ----- 38.42 15.33 124.0
22/03/2019 03:56:59 ML 2.0 6 km a sud-est di Castelsantangelo sul Nera (MC) Marche 42.85 13.20   9.9
22/03/2019 03:39:02 ML 2.0 5 km a sud-est di Castelsantangelo sul Nera (MC) Marche 42.86 13.20   9.6
22/03/2019 03:04:14 ML 2.6 3 km a sud-ovest di Pofi (FR) Lazio 41.55 13.39  10.5
21/03/2019 22:42:47 ML 3.0 5 km a est di Borgo Val di Taro (PR) Emilia Romagna 44.49 9.84   7.7
21/03/2019 18:36:06 ML 2.2 Isole Eolie (Messina) Sicilia 38.40 14.89  12.9
21/03/2019 13:56:13 ML 2.4 Costa Siciliana nord-orientale (Messina) Sicilia 38.33 15.31 172.2
21/03/2019 07:41:53 ML 2.0 5 km nord-est Camporeale (PA) Sicilia 37.93 13.14   7.8
20/03/2019 19:06:27 ML 2.1 6 km a sud-est di Castelsantangelo sul Nera (MC) Marche 42.85 13.20  10.0
20/03/2019 16:24:01 Mwp 6.3 Vanuatu Islands (Sea: Vanuatu) ----- -15.62 167.65 135.2
20/03/2019 15:50:02 ML 2.6 12 km a ovest di Milo (CT) Sicilia 37.76 15.00   0.7
20/03/2019 15:45:36 ML 2.1 6 km a sud-est di Castelsantangelo sul Nera (MC) Marche 42.85 13.20  10.0
20/03/2019 07:34:28 Mwp 5.8 Turkey ----- 37.42 29.51  10.1
20/03/2019 02:30:32 ML 2.0 3 km a ovest di Pieve Torina (MC) Marche 43.05 13.01  11.0
19/03/2019 19:41:35 ML 2.5 Costa Cilentana (Salerno) ----- 39.93 15.17   8.3
19/03/2019 19:17:06 ML 2.3 4 km nord-est Comano (MS) Toscana 44.33 10.15  62.7
19/03/2019 17:24:54 ML 2.0 3 km a sud-est di Bagno di Romagna (FC) Emilia Romagna 43.84 12.01   9.9
19/03/2019 14:38:54 ML 2.4 4 km nord-est Ospitale di Cadore (BL) Veneto 46.36 12.34   8.3
19/03/2019 09:51:02 ML 2.7 Mar Ionio Meridionale (MARE) ----- 37.46 16.08  11.4
19/03/2019 07:42:01 ML 2.1 Tirreno Meridionale (MARE) ----- 38.69 14.11  17.4
19/03/2019 03:44:44 ML 2.4 Confine Italia-Svizzera (SVIZZERA) ----- 46.63 9.32  13.5
19/03/2019 01:30:02 ML 2.0 4 km a ovest di Zafferana Etnea (CT) Sicilia 37.71 15.06   3.1
- traduzioni - freegames - frasi - subnet mask - partners - ipcheck - spazioinizio - pagerank - wi-fi - barzellette - favicon - speedtest - programmone - calendariofeste - screenmates -
Locations of visitors to this page